Terminal Aerodrome Forecast
Issued by NWS Boise, ID

Home | Current Version | Previous Version | Text Only | Print | Product List | Glossary On
Versions: 1 2 3 4 5 6 7 8 9 10 11 12 13 14 15 16 17 18
000
FTUS45 KBOI 202338
TAFBNO
TAF
KBNO 202338Z 2100/2124 21008KT P6SM BKN100
     FM210600 VRB05KT P6SM -RA OVC025
     FM211200 18012KT P6SM VCSH SCT030 BKN050
     FM212000 21020G30KT P6SM -SHRA OVC040=

USA.gov is the U.S. government's official web portal to all federal, state and local government web resources and services.